createdAt,value
2023-11-14T00:02:54.664Z,81.3
2023-11-14T00:22:54.606Z,82.1
2023-11-14T00:42:54.538Z,81.9
2023-11-14T01:02:54.544Z,82
2023-11-14T01:22:54.524Z,82.7
2023-11-14T01:42:54.427Z,85.2
2023-11-14T02:02:54.436Z,83
2023-11-14T02:22:54.389Z,82.9
2023-11-14T02:42:54.317Z,83.4
2023-11-14T03:02:54.351Z,86.1
2023-11-14T03:22:54.292Z,89.4
2023-11-14T03:42:54.302Z,89.2
2023-11-14T04:02:54.238Z,89.6
2023-11-14T04:22:54.200Z,87.3
2023-11-14T04:42:54.077Z,87.3
2023-11-14T05:02:54.102Z,89.1
2023-11-14T05:22:54.026Z,87.3
2023-11-14T05:42:53.981Z,87.3
2023-11-14T06:02:53.965Z,88.1
2023-11-14T06:22:54.863Z,88.6
2023-11-14T06:42:53.866Z,86.9
2023-11-14T07:02:53.917Z,85.3
2023-11-14T07:22:53.878Z,85.3
2023-11-14T07:42:53.811Z,84.7
2023-11-14T08:02:53.880Z,84
2023-11-14T08:22:53.696Z,84.1
2023-11-14T08:42:54.349Z,83.9
2023-11-14T09:02:53.626Z,83
2023-11-14T09:22:55.136Z,83.6
2023-11-14T09:42:53.545Z,83.1
2023-11-14T10:02:53.598Z,83
2023-11-14T10:42:53.461Z,82.5
2023-11-14T11:42:53.351Z,83.1
2023-11-14T12:02:53.380Z,81.1
2023-11-14T12:22:53.272Z,82.7
2023-11-14T12:42:53.223Z,83.4
2023-11-14T13:02:53.335Z,84.6
2023-11-14T13:22:53.154Z,83.4
2023-11-14T13:42:53.095Z,83.5
2023-11-14T14:02:53.094Z,81.8
2023-11-14T14:22:53.819Z,82
2023-11-14T14:42:52.984Z,82.2
2023-11-14T15:02:53.056Z,84.6
2023-11-14T15:22:53.454Z,88.7
2023-11-14T15:42:52.884Z,91.4
2023-11-14T16:02:52.943Z,94.4
2023-11-14T16:22:52.852Z,95.9
2023-11-14T16:42:52.758Z,97
2023-11-14T17:02:52.870Z,97.4
2023-11-14T17:22:52.759Z,97.7
2023-11-14T17:42:52.651Z,97.8
2023-11-14T18:02:54.294Z,97.9
2023-11-14T18:22:52.589Z,98.2
2023-11-14T18:42:52.539Z,98.4
2023-11-14T19:02:52.575Z,98.5
2023-11-14T19:23:21.581Z,98.5
2023-11-14T19:42:52.483Z,98.5
2023-11-14T20:02:52.460Z,98.5
2023-11-14T20:22:52.366Z,98.4
2023-11-14T20:42:52.379Z,98.2
2023-11-14T21:02:52.395Z,98.2
2023-11-14T21:22:52.292Z,98.2
2023-11-14T21:42:52.281Z,98.1
2023-11-14T22:02:52.313Z,97.9
2023-11-14T22:22:52.192Z,98.1
2023-11-14T22:42:52.160Z,98.2
2023-11-14T23:02:52.263Z,98.4
2023-11-14T23:22:52.053Z,98.3
2023-11-14T23:42:52.014Z,98.1
